Airfield :
LOGIN :

Register | Disclaimer

   EN    FR    IT 

 










Legend :    VFR   Marginal VFR   IFR   Intensive IFR   Very Intensive IFR
Visi :
Ceiling :
>= 8 km
>= 3000ft
5 to 8 km
1000 to 3000 ft
1500m to 5 km
500 to 1000 ft
800 to 1500m
200 to 500 ft
< 800m
< 200 ft
Symbols :   Thunderstorms  Fog  Heavy snow  Heavy precipitations  Wind > 20 kt
SIGMETs :     Misc.  Thunderstorms  Icing  Turbulence  Mountain Waves  Volcanic Ashes






- Airport Elevation : 1411 ft
- IATA code : ZHI


LSZG - Grenchen

CURRENT METAR :
  • 280450Z AUTO 05007KT 9999 BKN033 08/03 Q1016

EXPIRED METARs :
  • 280420Z AUTO 01008KT 340V050 9999 BKN031 08/03 Q1016
  • 280350Z AUTO 03007KT 9999 BKN032 08/03 Q1016
  • 280320Z AUTO 04007KT 350V070 9999 BKN030 08/03 Q1016
  • 280250Z AUTO 04009KT 9999 BKN029 08/04 Q1015
  • 280220Z AUTO 06006KT 020V090 9999 BKN030 08/04 Q1015
  • 280150Z AUTO 04007KT 9999 BKN028 BKN031 BKN035 08/04 Q1015
  • 280120Z AUTO 07006KT 9999 OVC029 08/04 Q1015
  • 280050Z AUTO 07007KT 9999 BKN030 08/04 Q1015
  • 280020Z AUTO 06005KT 9999 SCT030 OVC040 08/04 Q1015

Expired Forecast.
ATIS : +41 32 396 96 33



MET'MAP, your aeronautical weather chart ! - Copyright ORBIFLY December 2007 - Disclaimer

ORBIFLY MET'MAP TEAM :

Programming & Development : Alexandra Zaïnal
Original concept : Baudouin d'Aumeries
Technical & hardware support : Manuel Goepfert
Assistance : Marc-Olivier Méhu




SOURCES & CREDITS :

   NOAA